createdAt,value
2022-10-25T00:00:30.528Z,4.63
2022-10-25T00:03:00.159Z,4.28
2022-10-25T00:05:28.637Z,4.88
2022-10-25T00:07:56.801Z,4.68
2022-10-25T00:10:25.777Z,4.68
2022-10-25T00:12:54.189Z,5.00
2022-10-25T00:15:24.552Z,4.45
2022-10-25T00:17:53.122Z,4.07
2022-10-25T00:20:22.876Z,4.28
2022-10-25T00:22:50.951Z,3.80
2022-10-25T00:25:19.191Z,3.33
2022-10-25T00:27:47.431Z,3.50
2022-10-25T00:30:15.961Z,3.53
2022-10-25T00:32:44.277Z,3.17
2022-10-25T00:35:12.681Z,3.00
2022-10-25T00:37:42.708Z,3.22
2022-10-25T00:40:11.954Z,2.60
2022-10-25T00:42:40.156Z,2.90
2022-10-25T00:45:20.846Z,2.72
2022-10-25T00:47:52.895Z,2.83
2022-10-25T00:50:33.340Z,2.28
2022-10-25T00:53:08.751Z,2.40
2022-10-25T00:55:38.847Z,2.00
2022-10-25T00:58:11.186Z,2.03
2022-10-25T01:00:39.501Z,2.17
2022-10-25T01:03:08.091Z,2.30
2022-10-25T01:05:37.247Z,1.92
2022-10-25T01:08:07.364Z,1.48
2022-10-25T01:10:35.492Z,1.85
2022-10-25T01:13:04.378Z,1.98
2022-10-25T01:15:42.087Z,1.73
2022-10-25T01:18:18.940Z,1.40
2022-10-25T01:21:26.658Z,1.90
2022-10-25T01:24:28.774Z,1.50
2022-10-25T01:27:23.237Z,1.30
2022-10-25T01:30:05.896Z,1.50
2022-10-25T01:32:42.320Z,1.08
2022-10-25T01:35:18.686Z,1.25
2022-10-25T01:38:00.328Z,1.35
2022-10-25T01:40:35.130Z,1.70
2022-10-25T01:43:10.945Z,1.73
2022-10-25T01:45:44.306Z,1.30
2022-10-25T01:48:18.192Z,1.30
2022-10-25T01:50:48.797Z,1.35
2022-10-25T01:53:17.544Z,1.42
2022-10-25T01:55:51.477Z,1.73
2022-10-25T01:58:31.731Z,1.38
2022-10-25T02:01:09.084Z,1.60
2022-10-25T02:03:45.901Z,1.40
2022-10-25T02:06:25.269Z,1.23
2022-10-25T02:08:59.122Z,1.30
2022-10-25T02:11:29.704Z,1.33
2022-10-25T02:14:08.852Z,1.25
2022-10-25T02:16:41.695Z,1.40
2022-10-25T02:19:14.955Z,1.70
2022-10-25T02:21:45.164Z,1.10
2022-10-25T02:24:16.752Z,1.45
2022-10-25T02:29:18.131Z,1.70
2022-10-25T02:31:46.833Z,1.40
2022-10-25T02:34:16.756Z,1.45
2022-10-25T02:36:48.925Z,1.00
2022-10-25T02:39:18.245Z,1.38
2022-10-25T02:41:46.388Z,1.30
2022-10-25T02:44:14.554Z,1.20
2022-10-25T02:46:42.628Z,0.98
2022-10-25T02:49:10.834Z,1.25
2022-10-25T02:51:40.588Z,1.83
2022-10-25T02:54:08.808Z,0.98
2022-10-25T02:56:36.888Z,0.90
2022-10-25T02:59:05.024Z,0.75
2022-10-25T03:01:33.296Z,0.93
2022-10-25T03:04:01.512Z,1.00
2022-10-25T03:06:30.098Z,1.00
2022-10-25T03:08:59.848Z,0.90
2022-10-25T03:11:27.983Z,1.23
2022-10-25T03:13:56.155Z,1.13
2022-10-25T03:16:24.357Z,0.65
2022-10-25T03:18:52.494Z,1.13
2022-10-25T03:21:20.782Z,0.82
2022-10-25T03:23:48.949Z,0.98
2022-10-25T03:26:18.728Z,0.85
2022-10-25T03:28:46.945Z,0.90
2022-10-25T03:31:17.132Z,1.02
2022-10-25T03:33:45.656Z,1.05
2022-10-25T03:36:14.177Z,1.30
2022-10-25T03:38:42.277Z,0.93
2022-10-25T03:41:10.565Z,1.00
2022-10-25T03:43:40.257Z,0.90
2022-10-25T03:46:08.440Z,1.27
2022-10-25T03:48:37.400Z,1.08
2022-10-25T03:51:05.865Z,1.00
2022-10-25T03:53:34.255Z,0.80
2022-10-25T03:56:02.484Z,1.48
2022-10-25T03:58:30.889Z,1.10
2022-10-25T04:01:01.236Z,1.58
2022-10-25T04:03:29.603Z,1.42
2022-10-25T04:05:57.907Z,1.17
2022-10-25T04:08:26.095Z,1.15
2022-10-25T04:10:54.246Z,1.75
2022-10-25T04:13:22.554Z,1.40
2022-10-25T04:15:50.689Z,1.20
2022-10-25T04:18:20.982Z,1.02
2022-10-25T04:20:49.107Z,1.42
2022-10-25T04:23:17.256Z,1.92
2022-10-25T04:25:45.771Z,1.27
2022-10-25T04:28:13.943Z,1.42
2022-10-25T04:30:42.120Z,1.25
2022-10-25T04:33:10.167Z,1.23
2022-10-25T04:35:39.870Z,1.08
2022-10-25T04:38:08.032Z,1.30
2022-10-25T04:40:36.123Z,1.27
2022-10-25T04:43:04.401Z,0.75
2022-10-25T04:45:32.678Z,0.93
2022-10-25T04:48:01.440Z,0.82
2022-10-25T04:50:29.616Z,1.02
2022-10-25T04:52:59.233Z,0.65
2022-10-25T04:55:27.353Z,1.02
2022-10-25T04:57:55.490Z,0.65
2022-10-25T05:00:23.716Z,1.48
2022-10-25T05:02:53.322Z,1.13
2022-10-25T05:05:22.688Z,0.90
2022-10-25T05:07:51.169Z,1.05
2022-10-25T05:10:20.997Z,0.95
2022-10-25T05:12:49.398Z,1.08
2022-10-25T05:15:17.895Z,1.00
2022-10-25T05:17:46.033Z,1.40
2022-10-25T05:20:14.207Z,1.15
2022-10-25T05:22:42.368Z,1.67
2022-10-25T05:25:10.968Z,1.20
2022-10-25T05:27:40.972Z,1.10
2022-10-25T05:30:10.307Z,1.30
2022-10-25T05:32:38.745Z,1.27
2022-10-25T05:35:07.459Z,1.10
2022-10-25T05:37:35.667Z,1.55
2022-10-25T05:40:03.831Z,1.40
2022-10-25T05:42:32.193Z,1.50
2022-10-25T05:45:02.184Z,1.70
2022-10-25T05:47:30.291Z,1.10
2022-10-25T05:49:58.455Z,1.45
2022-10-25T05:52:26.689Z,0.95
2022-10-25T05:54:54.768Z,1.13
2022-10-25T05:57:22.859Z,1.60
2022-10-25T05:59:50.953Z,1.30
2022-10-25T06:02:21.399Z,1.52
2022-10-25T06:04:52.316Z,1.42
2022-10-25T06:07:20.910Z,1.25
2022-10-25T06:09:49.061Z,0.70
2022-10-25T06:12:17.266Z,1.10
2022-10-25T06:14:45.459Z,1.20
2022-10-25T06:17:13.985Z,1.58
2022-10-25T06:19:43.738Z,1.90
2022-10-25T06:22:11.941Z,1.70
2022-10-25T06:24:40.192Z,1.70
2022-10-25T06:27:08.457Z,1.40
2022-10-25T06:29:37.018Z,1.17
2022-10-25T06:32:05.631Z,1.20
2022-10-25T06:34:33.785Z,1.70
2022-10-25T06:37:03.484Z,1.20
2022-10-25T06:39:31.645Z,1.33
2022-10-25T06:41:59.882Z,1.20
2022-10-25T06:44:28.164Z,1.42
2022-10-25T06:47:16.458Z,1.17
2022-10-25T06:49:44.657Z,0.85
2022-10-25T06:52:14.481Z,1.08
2022-10-25T06:54:42.763Z,1.10
2022-10-25T06:57:10.985Z,1.00
2022-10-25T06:59:39.289Z,1.08
2022-10-25T07:02:07.781Z,0.95
2022-10-25T07:04:36.094Z,1.08
2022-10-25T07:07:04.273Z,0.90
2022-10-25T07:09:33.959Z,1.20
2022-10-25T07:12:02.176Z,1.00
2022-10-25T07:14:30.524Z,0.77
2022-10-25T07:16:59.268Z,0.60
2022-10-25T07:19:27.579Z,1.05
2022-10-25T07:21:55.795Z,1.02
2022-10-25T07:24:24.361Z,1.33
2022-10-25T07:26:54.061Z,1.10
2022-10-25T07:29:22.390Z,1.30
2022-10-25T07:31:50.676Z,0.73
2022-10-25T07:34:20.368Z,0.80
2022-10-25T07:36:48.771Z,0.70
2022-10-25T07:39:16.933Z,0.68
2022-10-25T07:41:45.221Z,0.63
2022-10-25T07:44:18.360Z,0.90
2022-10-25T07:46:49.132Z,1.30
2022-10-25T07:49:17.468Z,0.40
2022-10-25T07:51:45.740Z,0.70
2022-10-25T07:54:13.964Z,0.95
2022-10-25T07:56:42.250Z,0.73
2022-10-25T07:59:10.518Z,0.80
2022-10-25T08:01:40.371Z,0.70
2022-10-25T08:04:08.687Z,0.80
2022-10-25T08:06:36.910Z,0.50
2022-10-25T08:09:14.721Z,0.65
2022-10-25T08:11:54.121Z,0.65
2022-10-25T08:16:52.168Z,0.88
2022-10-25T08:19:20.549Z,0.50
2022-10-25T08:21:48.873Z,0.60
2022-10-25T08:24:17.107Z,0.80
2022-10-25T08:26:45.308Z,1.08
2022-10-25T08:29:13.573Z,0.65
2022-10-25T08:31:41.909Z,1.10
2022-10-25T08:36:39.898Z,1.00
2022-10-25T08:39:08.170Z,0.80
2022-10-25T08:41:46.315Z,0.80
2022-10-25T08:44:31.367Z,0.88
2022-10-25T08:47:04.617Z,1.00
2022-10-25T08:49:44.925Z,0.80
2022-10-25T08:52:20.128Z,0.73
2022-10-25T08:54:49.757Z,0.57
2022-10-25T08:57:24.156Z,0.77
2022-10-25T08:59:55.847Z,1.05
2022-10-25T09:02:33.987Z,0.82
2022-10-25T09:05:04.086Z,0.90
2022-10-25T09:08:09.621Z,1.00
2022-10-25T09:10:51.072Z,1.02
2022-10-25T09:13:31.720Z,0.73
2022-10-25T09:16:10.982Z,1.00
2022-10-25T09:18:46.217Z,0.80
2022-10-25T09:21:22.773Z,0.90
2022-10-25T09:24:15.199Z,0.98
2022-10-25T09:26:47.521Z,1.02
2022-10-25T09:29:25.418Z,0.60
2022-10-25T09:31:57.271Z,0.63
2022-10-25T09:34:29.096Z,1.00
2022-10-25T09:37:04.905Z,1.00
2022-10-25T09:39:42.932Z,0.95
2022-10-25T09:42:19.179Z,0.90
2022-10-25T09:44:52.252Z,1.20
2022-10-25T09:47:29.973Z,1.02
2022-10-25T09:50:02.929Z,0.93
2022-10-25T09:52:43.306Z,0.88
2022-10-25T09:55:33.082Z,0.73
2022-10-25T09:58:02.390Z,1.13
2022-10-25T10:00:30.937Z,0.50
2022-10-25T10:02:59.241Z,1.05
2022-10-25T10:05:28.086Z,1.08
2022-10-25T10:07:57.704Z,0.93
2022-10-25T10:10:30.417Z,0.88
2022-10-25T10:13:03.286Z,1.02
2022-10-25T10:15:36.674Z,0.90
2022-10-25T10:18:24.914Z,0.68
2022-10-25T10:21:13.492Z,0.70
2022-10-25T10:23:51.793Z,0.77
2022-10-25T10:26:24.986Z,0.70
2022-10-25T10:29:08.713Z,0.40
2022-10-25T10:31:39.290Z,0.75
2022-10-25T10:34:21.820Z,0.80
2022-10-25T10:37:03.614Z,0.88
2022-10-25T10:39:33.668Z,1.15
2022-10-25T10:42:04.430Z,0.52
2022-10-25T10:44:34.983Z,0.90
2022-10-25T10:47:11.135Z,0.68
2022-10-25T10:49:42.850Z,0.73
2022-10-25T10:52:29.833Z,0.82
2022-10-25T10:55:01.306Z,1.05
2022-10-25T10:57:33.581Z,0.80
2022-10-25T11:00:02.902Z,0.80
2022-10-25T11:02:40.964Z,1.15
2022-10-25T11:05:22.272Z,0.55
2022-10-25T11:07:57.073Z,0.68
2022-10-25T11:10:32.217Z,0.77
2022-10-25T11:13:12.737Z,0.95
2022-10-25T11:16:18.896Z,0.88
2022-10-25T11:18:56.072Z,0.98
2022-10-25T11:21:39.453Z,1.17
2022-10-25T11:24:22.372Z,0.90
2022-10-25T11:26:58.379Z,0.88
2022-10-25T11:29:45.141Z,1.13
2022-10-25T11:32:45.455Z,0.70
2022-10-25T11:35:29.883Z,0.95
2022-10-25T11:38:04.049Z,1.00
2022-10-25T11:40:38.715Z,1.02
2022-10-25T11:43:24.523Z,0.93
2022-10-25T11:46:00.777Z,0.90
2022-10-25T11:48:44.484Z,1.13
2022-10-25T11:51:23.678Z,0.80
2022-10-25T11:54:05.907Z,1.17
2022-10-25T11:56:40.868Z,1.20
2022-10-25T11:59:19.372Z,1.23
2022-10-25T12:02:03.051Z,1.20
2022-10-25T12:05:01.821Z,1.27
2022-10-25T12:07:39.404Z,1.33
2022-10-25T12:10:17.328Z,1.20
2022-10-25T12:12:50.650Z,0.95
2022-10-25T12:15:25.486Z,0.93
2022-10-25T12:17:54.581Z,1.23
2022-10-25T12:20:26.957Z,1.58
2022-10-25T12:22:59.044Z,0.93
2022-10-25T12:25:32.143Z,1.23
2022-10-25T12:28:06.945Z,0.93
2022-10-25T12:30:37.563Z,1.35
2022-10-25T12:33:16.826Z,1.30
2022-10-25T12:35:51.343Z,1.13
2022-10-25T12:38:27.162Z,1.40
2022-10-25T12:41:01.438Z,1.52
2022-10-25T12:43:35.848Z,1.15
2022-10-25T12:46:52.042Z,1.40
2022-10-25T12:49:49.085Z,1.30
2022-10-25T12:52:26.904Z,1.30
2022-10-25T12:55:09.431Z,0.90
2022-10-25T12:57:48.517Z,1.23
2022-10-25T13:03:28.470Z,1.40
2022-10-25T13:06:11.121Z,1.13
2022-10-25T13:08:41.254Z,1.50
2022-10-25T13:11:10.590Z,1.20
2022-10-25T13:13:41.493Z,1.10
2022-10-25T13:16:11.440Z,1.40
2022-10-25T13:18:47.292Z,1.30
2022-10-25T13:21:17.653Z,1.13
2022-10-25T13:24:02.575Z,1.10
2022-10-25T13:26:34.561Z,1.00
2022-10-25T13:29:05.061Z,2.20
2022-10-25T13:31:58.700Z,2.15
2022-10-25T13:34:36.755Z,1.60
2022-10-25T13:37:07.702Z,3.15
2022-10-25T13:39:43.968Z,2.38
2022-10-25T13:42:24.562Z,1.10
2022-10-25T13:44:56.898Z,1.15
2022-10-25T13:47:43.705Z,1.10
2022-10-25T13:50:22.259Z,1.63
2022-10-25T13:53:01.673Z,0.90
2022-10-25T13:55:35.817Z,1.20
2022-10-25T13:58:25.740Z,0.77
2022-10-25T14:00:55.584Z,1.17
2022-10-25T14:03:38.620Z,1.20
2022-10-25T14:06:27.725Z,1.35
2022-10-25T14:09:26.807Z,1.10
2022-10-25T14:12:11.255Z,1.38
2022-10-25T14:14:57.472Z,1.20
2022-10-25T14:17:33.729Z,1.58
2022-10-25T14:20:04.475Z,1.10
2022-10-25T14:22:37.252Z,1.13
2022-10-25T14:25:09.519Z,1.08
2022-10-25T14:27:38.928Z,1.10
2022-10-25T14:30:24.829Z,1.38
2022-10-25T14:32:55.436Z,1.58
2022-10-25T14:35:25.056Z,1.00
2022-10-25T14:37:54.853Z,1.27
2022-10-25T14:40:25.537Z,1.60
2022-10-25T14:42:56.374Z,1.50
2022-10-25T14:45:26.752Z,1.60
2022-10-25T14:47:55.062Z,1.42
2022-10-25T14:50:26.726Z,1.38
2022-10-25T14:52:59.147Z,1.40
2022-10-25T14:55:32.935Z,1.30
2022-10-25T14:58:04.753Z,1.00
2022-10-25T15:00:33.158Z,1.00
2022-10-25T15:03:04.583Z,1.50
2022-10-25T15:05:33.250Z,1.40
2022-10-25T15:08:03.293Z,1.40
2022-10-25T15:10:40.964Z,1.13
2022-10-25T15:13:17.777Z,1.23
2022-10-25T15:15:48.954Z,0.95
2022-10-25T15:18:31.493Z,0.88
2022-10-25T15:21:12.843Z,1.60
2022-10-25T15:23:44.367Z,1.02
2022-10-25T15:26:26.522Z,1.38
2022-10-25T15:28:57.968Z,1.23
2022-10-25T15:31:28.417Z,1.50
2022-10-25T15:33:58.588Z,1.60
2022-10-25T15:36:28.538Z,1.88
2022-10-25T15:39:11.657Z,2.28
2022-10-25T15:41:42.616Z,3.05
2022-10-25T15:44:11.344Z,5.80
2022-10-25T15:46:40.236Z,5.20
2022-10-25T15:49:09.484Z,5.63
2022-10-25T15:51:40.879Z,3.20
2022-10-25T15:54:16.688Z,2.90
2022-10-25T15:56:54.270Z,2.47
2022-10-25T15:59:23.452Z,3.65
2022-10-25T16:01:55.755Z,4.63
2022-10-25T16:04:24.380Z,4.18
2022-10-25T16:06:52.983Z,2.63
2022-10-25T16:09:23.232Z,2.20
2022-10-25T16:11:56.070Z,2.30
2022-10-25T16:14:28.787Z,2.03
2022-10-25T16:17:00.562Z,2.17
2022-10-25T16:19:34.262Z,2.08
2022-10-25T16:22:05.900Z,1.83
2022-10-25T16:24:50.441Z,2.03
2022-10-25T16:27:24.717Z,1.92
2022-10-25T16:29:53.464Z,1.63
2022-10-25T16:32:21.713Z,1.98
2022-10-25T16:34:50.179Z,1.98
2022-10-25T16:37:18.904Z,1.70
2022-10-25T16:39:47.137Z,1.35
2022-10-25T16:42:34.143Z,1.73
2022-10-25T16:45:15.124Z,1.60
2022-10-25T16:47:43.344Z,1.38
2022-10-25T16:50:13.180Z,1.58
2022-10-25T16:52:41.465Z,1.60
2022-10-25T16:55:10.723Z,1.83
2022-10-25T16:57:40.458Z,2.00
2022-10-25T17:00:09.820Z,2.00
2022-10-25T17:02:39.117Z,1.92
2022-10-25T17:05:08.005Z,1.40
2022-10-25T17:07:36.376Z,1.63
2022-10-25T17:10:04.760Z,1.48
2022-10-25T17:12:33.106Z,1.40
2022-10-25T17:15:03.484Z,1.48
2022-10-25T17:17:31.942Z,1.75
2022-10-25T17:20:00.481Z,2.08
2022-10-25T17:22:29.151Z,1.70
2022-10-25T17:25:00.882Z,2.25
2022-10-25T17:27:32.664Z,2.17
2022-10-25T17:30:08.656Z,3.10
2022-10-25T17:32:37.004Z,2.20
2022-10-25T17:35:06.988Z,3.25
2022-10-25T17:37:35.405Z,2.03
2022-10-25T17:40:03.916Z,2.17
2022-10-25T17:42:32.474Z,1.75
2022-10-25T17:45:01.044Z,1.60
2022-10-25T17:47:30.799Z,1.75
2022-10-25T17:50:01.751Z,1.60
2022-10-25T17:52:30.569Z,2.47
2022-10-25T17:54:59.344Z,2.28
2022-10-25T17:57:27.961Z,2.53
2022-10-25T17:59:58.286Z,2.50
2022-10-25T18:02:26.744Z,2.03
2022-10-25T18:05:18.988Z,1.73
2022-10-25T18:07:44.989Z,1.50
2022-10-25T18:10:13.343Z,1.52
2022-10-25T18:12:41.525Z,1.90
2022-10-25T18:15:10.688Z,1.63
2022-10-25T18:17:39.634Z,2.03
2022-10-25T18:20:10.460Z,1.90
2022-10-25T18:22:38.724Z,1.67
2022-10-25T18:25:07.854Z,1.98
2022-10-25T18:27:36.124Z,1.80
2022-10-25T18:30:05.378Z,1.70
2022-10-25T18:32:36.179Z,2.15
2022-10-25T18:35:04.917Z,2.08
2022-10-25T18:37:34.679Z,1.58
2022-10-25T18:40:02.973Z,1.90
2022-10-25T18:42:31.198Z,1.90
2022-10-25T18:44:59.568Z,1.83
2022-10-25T18:47:27.797Z,1.95
2022-10-25T18:49:56.008Z,2.13
2022-10-25T18:52:24.740Z,1.58
2022-10-25T18:54:54.696Z,2.00
2022-10-25T18:57:22.926Z,1.67
2022-10-25T18:59:51.574Z,1.50
2022-10-25T19:02:20.053Z,2.20
2022-10-25T19:04:48.477Z,2.10
2022-10-25T19:07:16.633Z,1.98
2022-10-25T19:09:44.915Z,1.77
2022-10-25T19:12:14.853Z,1.92
2022-10-25T19:14:43.092Z,2.03
2022-10-25T19:17:11.825Z,1.45
2022-10-25T19:19:39.978Z,2.13
2022-10-25T19:22:08.219Z,1.65
2022-10-25T19:24:38.444Z,3.33
2022-10-25T19:27:06.661Z,1.80
2022-10-25T19:29:36.304Z,2.25
2022-10-25T19:32:04.823Z,2.50
2022-10-25T19:34:33.276Z,2.50
2022-10-25T19:37:04.494Z,1.80
2022-10-25T19:39:32.877Z,2.13
2022-10-25T19:42:01.303Z,2.25
2022-10-25T19:44:29.657Z,3.33
2022-10-25T19:46:59.424Z,4.55
2022-10-25T19:49:27.954Z,4.05
2022-10-25T19:51:56.224Z,3.38
2022-10-25T19:54:24.706Z,4.38
2022-10-25T19:56:55.131Z,3.38
2022-10-25T19:59:23.313Z,3.47
2022-10-25T20:01:51.729Z,3.17
2022-10-25T20:04:21.791Z,2.80
2022-10-25T20:06:50.066Z,2.47
2022-10-25T20:09:18.536Z,2.75
2022-10-25T20:11:47.197Z,3.15
2022-10-25T20:14:15.335Z,3.08
2022-10-25T20:16:43.704Z,3.42
2022-10-25T20:19:14.473Z,3.28
2022-10-25T20:21:44.398Z,2.80
2022-10-25T20:24:12.613Z,2.95
2022-10-25T20:26:44.745Z,3.40
2022-10-25T20:29:20.125Z,3.00
2022-10-25T20:31:50.071Z,2.85
2022-10-25T20:34:18.725Z,2.72
2022-10-25T20:36:48.861Z,3.00
2022-10-25T20:39:17.415Z,3.15
2022-10-25T20:41:46.097Z,3.85
2022-10-25T20:44:14.920Z,3.70
2022-10-25T20:46:43.480Z,3.80
2022-10-25T20:49:12.059Z,3.20
2022-10-25T20:51:40.279Z,3.60
2022-10-25T20:54:10.516Z,3.33
2022-10-25T20:56:39.894Z,3.70
2022-10-25T20:59:08.568Z,5.38
2022-10-25T21:01:37.998Z,4.88
2022-10-25T21:04:07.200Z,4.32
2022-10-25T21:06:35.732Z,3.67
2022-10-25T21:09:04.401Z,4.18
2022-10-25T21:11:34.281Z,4.05
2022-10-25T21:14:02.937Z,3.72
2022-10-25T21:16:31.297Z,3.88
2022-10-25T21:19:04.564Z,3.70
2022-10-25T21:21:33.137Z,3.42
2022-10-25T21:24:02.568Z,3.08
2022-10-25T21:26:31.150Z,3.17
2022-10-25T21:29:01.015Z,3.50
2022-10-25T21:31:29.456Z,3.67
2022-10-25T21:33:59.622Z,3.42
2022-10-25T21:36:28.645Z,3.50
2022-10-25T21:38:57.299Z,4.72
2022-10-25T21:41:27.155Z,3.92
2022-10-25T21:43:57.254Z,3.88
2022-10-25T21:46:28.811Z,3.65
2022-10-25T21:48:57.106Z,4.63
2022-10-25T21:51:25.900Z,4.10
2022-10-25T21:53:55.382Z,4.90
2022-10-25T21:56:30.697Z,5.20
2022-10-25T21:59:00.993Z,4.70
2022-10-25T22:01:31.926Z,4.28
2022-10-25T22:04:00.814Z,4.35
2022-10-25T22:06:29.886Z,4.68
2022-10-25T22:08:58.980Z,4.78
2022-10-25T22:11:29.467Z,4.25
2022-10-25T22:13:59.638Z,4.43
2022-10-25T22:16:28.250Z,3.60
2022-10-25T22:19:00.133Z,3.97
2022-10-25T22:21:30.925Z,4.00
2022-10-25T22:23:59.983Z,3.78
2022-10-25T22:26:28.781Z,4.07
2022-10-25T22:28:58.730Z,4.18
2022-10-25T22:31:28.834Z,3.50
2022-10-25T22:34:08.283Z,3.40
2022-10-25T22:36:46.350Z,3.65
2022-10-25T22:39:16.830Z,4.20
2022-10-25T22:41:46.614Z,3.85
2022-10-25T22:46:58.701Z,4.38
2022-10-25T22:49:34.241Z,3.40
2022-10-25T22:52:05.290Z,3.60
2022-10-25T22:54:36.658Z,3.38
2022-10-25T22:57:14.112Z,3.70
2022-10-25T22:59:48.583Z,4.43
2022-10-25T23:02:16.791Z,3.70
2022-10-25T23:04:46.589Z,3.95
2022-10-25T23:07:18.347Z,3.58
2022-10-25T23:09:49.852Z,4.18
2022-10-25T23:12:18.226Z,3.80
2022-10-25T23:14:46.430Z,3.90
2022-10-25T23:17:14.638Z,4.35
2022-10-25T23:19:42.787Z,3.88
2022-10-25T23:22:17.992Z,3.38
2022-10-25T23:24:46.208Z,3.30
2022-10-25T23:27:14.478Z,4.13
2022-10-25T23:29:42.666Z,4.03
2022-10-25T23:32:10.964Z,3.10
2022-10-25T23:34:39.747Z,3.53
2022-10-25T23:37:07.955Z,3.38
2022-10-25T23:39:37.707Z,3.78
2022-10-25T23:42:05.871Z,2.78
2022-10-25T23:44:34.079Z,2.97
2022-10-25T23:47:02.288Z,3.88
2022-10-25T23:49:30.508Z,3.17
2022-10-25T23:51:58.693Z,3.42
2022-10-25T23:54:26.935Z,3.45
2022-10-25T23:56:56.608Z,3.83
2022-10-25T23:59:24.956Z,4.32
